Time,TemperatureF,DewpointF,PressureIn,WindDirection,WindDirectionDegrees,WindSpeedMPH,WindSpeedGustMPH,Humidity,HourlyPrecipIn,Conditions,Clouds,dailyrainin,SolarRadiationWatts/m^2,SoftwareType,DateUTC
2014-03-03 00:04:00,48.7,46.8,30.15,SE,129,2.9,2.9,93,0.00,,,0.00,0.0,meteobridge,2014-03-03 08:04:00,
2014-03-03 00:09:00,48.7,46.8,30.16,East,100,0.9,2.0,93,0.00,,,0.00,0.0,meteobridge,2014-03-03 08:09:00,
2014-03-03 00:14:00,48.6,46.6,30.16,East,100,0.0,0.9,93,0.00,,,0.00,0.0,meteobridge,2014-03-03 08:14:00,
2014-03-03 00:19:00,48.6,46.4,30.16,East,100,0.9,0.9,92,0.00,,,0.00,0.0,meteobridge,2014-03-03 08:19:00,
2014-03-03 00:24:00,48.4,46.2,30.16,East,100,0.0,0.9,92,0.00,,,0.00,0.0,meteobridge,2014-03-03 08:24:00,
2014-03-03 00:30:00,48.4,46.2,30.16,South,179,0.9,2.0,92,0.00,,,0.00,0.0,meteobridge,2014-03-03 08:30:00,
2014-03-03 00:35:00,48.0,45.9,30.16,South,179,0.9,0.9,92,0.00,,,0.00,0.0,meteobridge,2014-03-03 08:35:00,
2014-03-03 00:40:00,48.0,45.9,30.16,South,179,0.9,2.0,92,0.00,,,0.00,0.0,meteobridge,2014-03-03 08:40:00,
2014-03-03 00:45:00,47.8,45.7,30.16,South,179,0.0,0.9,92,0.00,,,0.00,0.0,meteobridge,2014-03-03 08:45:00,
2014-03-03 00:50:00,47.7,45.5,30.16,South,179,0.0,0.9,92,0.00,,,0.00,0.0,meteobridge,2014-03-03 08:50:00,
2014-03-03 00:55:00,47.7,45.5,30.16,South,179,0.0,0.9,92,0.00,,,0.00,0.0,meteobridge,2014-03-03 08:55:00,
2014-03-03 01:00:00,47.5,45.3,30.16,South,179,0.0,0.0,92,0.00,,,0.00,0.0,meteobridge,2014-03-03 09:00:00,
2014-03-03 01:05:00,47.3,45.1,30.16,South,179,0.9,0.9,92,0.00,,,0.00,0.0,meteobridge,2014-03-03 09:05:00,
2014-03-03 01:10:00,47.1,45.0,30.16,South,179,0.0,0.0,92,0.00,,,0.00,0.0,meteobridge,2014-03-03 09:10:00,
2014-03-03 01:15:00,46.9,44.8,30.16,South,178,0.0,0.0,92,0.00,,,0.00,0.0,meteobridge,2014-03-03 09:15:00,
2014-03-03 01:20:00,46.8,44.6,30.16,South,179,0.9,2.0,92,0.00,,,0.00,0.0,meteobridge,2014-03-03 09:20:00,
2014-03-03 01:26:00,46.6,44.4,30.16,South,179,0.0,0.9,92,0.00,,,0.00,0.0,meteobridge,2014-03-03 09:26:00,
2014-03-03 01:31:00,46.6,44.4,30.15,South,178,0.0,0.9,92,0.00,,,0.00,0.0,meteobridge,2014-03-03 09:31:00,
2014-03-03 01:36:00,46.2,44.1,30.16,South,179,0.0,0.0,92,0.00,,,0.00,0.0,meteobridge,2014-03-03 09:36:00,
2014-03-03 01:41:00,46.2,44.1,30.15,South,179,0.0,0.0,92,0.00,,,0.00,0.0,meteobridge,2014-03-03 09:41:00,
2014-03-03 01:47:00,46.0,43.9,30.15,South,179,0.0,0.0,92,0.00,,,0.00,0.0,meteobridge,2014-03-03 09:47:00,
2014-03-03 01:52:00,45.9,43.7,30.15,South,179,0.9,0.9,92,0.00,,,0.00,0.0,meteobridge,2014-03-03 09:52:00,
2014-03-03 01:57:00,45.7,43.5,30.15,South,179,0.0,0.9,92,0.00,,,0.00,0.0,meteobridge,2014-03-03 09:57:00,
2014-03-03 02:02:00,45.7,43.5,30.14,South,179,0.9,0.9,92,0.00,,,0.00,0.0,meteobridge,2014-03-03 10:02:00,
2014-03-03 02:07:00,45.5,43.5,30.15,WSW,249,2.0,2.0,93,0.00,,,0.00,0.0,meteobridge,2014-03-03 10:07:00,
2014-03-03 02:12:00,45.3,43.3,30.14,WSW,249,0.0,0.9,93,0.00,,,0.00,0.0,meteobridge,2014-03-03 10:12:00,
2014-03-03 02:17:00,45.3,43.3,30.14,WSW,249,0.0,0.9,93,0.00,,,0.00,0.0,meteobridge,2014-03-03 10:17:00,
2014-03-03 02:22:00,45.1,43.2,30.14,WSW,249,0.9,0.9,93,0.00,,,0.00,0.0,meteobridge,2014-03-03 10:22:00,
2014-03-03 02:27:00,45.1,43.2,30.14,WSW,249,0.0,0.9,93,0.00,,,0.00,0.0,meteobridge,2014-03-03 10:27:00,
2014-03-03 02:32:00,45.0,43.0,30.14,WSW,249,0.0,0.0,93,0.00,,,0.00,0.0,meteobridge,2014-03-03 10:32:00,
2014-03-03 02:38:00,45.0,43.0,30.14,WSW,249,0.0,0.0,93,0.00,,,0.00,0.0,meteobridge,2014-03-03 10:38:00,
2014-03-03 02:43:00,44.8,42.8,30.14,WSW,249,0.0,0.0,93,0.00,,,0.00,0.0,meteobridge,2014-03-03 10:43:00,
2014-03-03 02:48:00,44.6,42.6,30.13,WSW,249,0.0,0.0,93,0.00,,,0.00,0.0,meteobridge,2014-03-03 10:48:00,
2014-03-03 02:54:00,44.4,42.4,30.14,WSW,249,0.9,2.0,93,0.00,,,0.00,0.0,meteobridge,2014-03-03 10:54:00,
2014-03-03 02:59:00,44.4,42.8,30.14,WSW,249,0.9,0.9,94,0.00,,,0.00,0.0,meteobridge,2014-03-03 10:59:00,
2014-03-03 03:04:00,44.4,42.8,30.14,WSW,249,0.0,0.9,94,0.00,,,0.00,0.0,meteobridge,2014-03-03 11:04:00,
2014-03-03 03:09:00,44.4,42.8,30.14,WSW,249,2.0,2.0,94,0.00,,,0.00,0.0,meteobridge,2014-03-03 11:09:00,
2014-03-03 03:14:00,44.4,42.8,30.14,NNW,336,0.9,0.9,94,0.00,,,0.00,0.0,meteobridge,2014-03-03 11:14:00,
2014-03-03 03:19:00,44.2,42.6,30.14,NNW,336,0.9,2.0,94,0.00,,,0.00,0.0,meteobridge,2014-03-03 11:19:00,
2014-03-03 03:24:00,44.2,42.6,30.14,NNW,336,0.0,0.9,94,0.00,,,0.00,0.0,meteobridge,2014-03-03 11:24:00,
2014-03-03 03:29:00,44.4,42.8,30.14,West,263,2.0,2.0,94,0.00,,,0.00,0.0,meteobridge,2014-03-03 11:29:00,
2014-03-03 03:34:00,44.4,43.2,30.15,West,265,0.0,0.9,95,0.00,,,0.00,0.0,meteobridge,2014-03-03 11:34:00,
2014-03-03 03:39:00,44.6,43.3,30.15,West,266,0.0,0.0,95,0.00,,,0.00,0.0,meteobridge,2014-03-03 11:39:00,
2014-03-03 03:44:00,44.8,43.5,30.15,West,266,0.0,0.9,95,0.00,,,0.00,0.0,meteobridge,2014-03-03 11:44:00,
2014-03-03 03:49:00,44.8,43.5,30.14,West,266,0.9,0.9,95,0.00,,,0.00,0.0,meteobridge,2014-03-03 11:49:00,
2014-03-03 03:55:00,45.0,43.7,30.14,West,266,0.0,0.9,95,0.00,,,0.00,0.0,meteobridge,2014-03-03 11:55:00,
2014-03-03 04:00:00,45.0,43.7,30.14,West,266,0.0,0.0,95,0.00,,,0.00,0.0,meteobridge,2014-03-03 12:00:00,
2014-03-03 04:05:00,45.1,43.9,30.14,West,266,0.0,0.0,95,0.00,,,0.00,0.0,meteobridge,2014-03-03 12:05:00,
2014-03-03 04:10:00,45.1,43.9,30.14,West,266,0.0,0.0,95,0.00,,,0.00,0.0,meteobridge,2014-03-03 12:10:00,
2014-03-03 04:15:00,45.1,43.9,30.14,West,266,2.0,2.0,95,0.00,,,0.00,0.0,meteobridge,2014-03-03 12:15:00,
2014-03-03 04:20:00,45.1,43.9,30.13,West,266,2.0,2.0,95,0.00,,,0.00,0.0,meteobridge,2014-03-03 12:20:00,
2014-03-03 04:26:00,45.1,43.9,30.13,SSW,206,0.9,2.0,95,0.00,,,0.00,0.0,meteobridge,2014-03-03 12:26:00,
2014-03-03 04:31:00,45.1,43.9,30.13,SSW,207,0.0,2.0,95,0.00,,,0.00,0.0,meteobridge,2014-03-03 12:31:00,
2014-03-03 04:36:00,45.1,43.9,30.13,SSW,207,0.0,0.9,95,0.00,,,0.00,0.0,meteobridge,2014-03-03 12:36:00,
2014-03-03 04:41:00,45.1,43.9,30.13,SSW,206,0.9,0.9,95,0.00,,,0.00,0.0,meteobridge,2014-03-03 12:41:00,
2014-03-03 04:46:00,45.1,43.9,30.14,SSW,207,0.9,0.9,95,0.00,,,0.00,0.0,meteobridge,2014-03-03 12:46:00,
2014-03-03 04:51:00,45.1,43.9,30.13,South,170,0.9,2.0,95,0.00,,,0.00,0.0,meteobridge,2014-03-03 12:51:00,
2014-03-03 04:56:00,45.1,43.9,30.13,South,170,0.9,0.9,95,0.00,,,0.00,0.0,meteobridge,2014-03-03 12:56:00,
2014-03-03 05:01:00,45.1,43.9,30.14,South,170,0.0,0.9,95,0.00,,,0.00,0.0,meteobridge,2014-03-03 13:01:00,
2014-03-03 05:07:00,45.1,43.9,30.14,South,170,0.9,0.9,95,0.00,,,0.00,0.0,meteobridge,2014-03-03 13:07:00,
2014-03-03 05:12:00,45.1,43.9,30.14,South,170,0.0,0.0,95,0.00,,,0.00,0.0,meteobridge,2014-03-03 13:12:00,
2014-03-03 05:17:00,45.1,43.9,30.13,South,170,0.9,0.9,95,0.00,,,0.00,0.0,meteobridge,2014-03-03 13:17:00,
2014-03-03 05:18:00,45.1,43.9,30.13,South,170,0.0,0.9,95,0.00,,,0.00,0.0,meteobridge,2014-03-03 13:18:00,
2014-03-03 05:23:00,45.1,43.9,30.13,South,170,0.0,0.9,95,0.00,,,0.00,0.0,meteobridge,2014-03-03 13:23:00,
2014-03-03 05:28:00,45.1,43.9,30.13,South,170,0.0,0.0,95,0.00,,,0.00,0.0,meteobridge,2014-03-03 13:28:00,
2014-03-03 05:33:00,45.1,43.9,30.13,South,170,0.0,0.9,95,0.00,,,0.00,0.0,meteobridge,2014-03-03 13:33:00,
2014-03-03 05:39:00,45.3,44.1,30.13,South,170,0.9,2.0,95,0.00,,,0.00,0.0,meteobridge,2014-03-03 13:39:00,
2014-03-03 05:44:00,45.3,44.1,30.13,South,170,0.0,2.0,95,0.00,,,0.00,0.0,meteobridge,2014-03-03 13:44:00,
2014-03-03 05:49:00,45.7,44.6,30.12,South,170,0.9,0.9,96,0.00,,,0.00,0.0,meteobridge,2014-03-03 13:49:00,
2014-03-03 05:54:00,45.7,44.6,30.12,South,170,0.9,0.9,96,0.00,,,0.00,0.0,meteobridge,2014-03-03 13:54:00,
2014-03-03 05:59:00,45.9,44.8,30.12,South,170,0.0,0.9,96,0.00,,,0.00,0.0,meteobridge,2014-03-03 13:59:00,
2014-03-03 06:04:00,45.9,44.4,30.12,South,170,2.0,2.0,95,0.00,,,0.00,0.0,meteobridge,2014-03-03 14:04:00,
2014-03-03 06:09:00,45.9,44.8,30.11,SSE,167,0.9,0.9,96,0.00,,,0.00,0.0,meteobridge,2014-03-03 14:09:00,
2014-03-03 06:14:00,46.0,45.0,30.11,SSE,168,0.9,0.9,96,0.00,,,0.00,0.0,meteobridge,2014-03-03 14:14:00,
2014-03-03 06:19:00,46.0,45.0,30.11,SSE,167,0.9,0.9,96,0.00,,,0.00,0.0,meteobridge,2014-03-03 14:19:00,
2014-03-03 06:24:00,46.0,45.0,30.12,SSE,167,0.0,0.9,96,0.00,,,0.00,0.0,meteobridge,2014-03-03 14:24:00,
2014-03-03 06:29:00,46.0,45.0,30.12,SSE,168,0.9,0.9,96,0.00,,,0.00,0.0,meteobridge,2014-03-03 14:29:00,
2014-03-03 06:34:00,46.0,45.0,30.12,SSE,168,0.9,0.9,96,0.00,,,0.00,0.0,meteobridge,2014-03-03 14:34:00,
2014-03-03 06:40:00,46.2,45.1,30.12,ENE,58,0.9,2.0,96,0.00,,,0.00,0.0,meteobridge,2014-03-03 14:40:00,
2014-03-03 06:45:00,46.2,45.1,30.12,ENE,58,0.9,0.9,96,0.00,,,0.00,0.0,meteobridge,2014-03-03 14:45:00,
2014-03-03 06:50:00,46.4,45.3,30.12,NE,50,0.9,2.0,96,0.00,,,0.00,5.0,meteobridge,2014-03-03 14:50:00,
2014-03-03 06:55:00,46.6,45.1,30.12,NE,50,0.9,2.0,95,0.00,,,0.00,9.0,meteobridge,2014-03-03 14:55:00,
2014-03-03 07:00:00,46.6,45.5,30.12,NE,50,0.9,0.9,96,0.00,,,0.00,12.0,meteobridge,2014-03-03 15:00:00,
2014-03-03 07:05:00,46.6,45.5,30.12,NE,50,2.0,2.0,96,0.00,,,0.00,14.0,meteobridge,2014-03-03 15:05:00,
2014-03-03 07:10:00,46.8,45.7,30.12,NE,50,0.0,0.9,96,0.00,,,0.00,14.0,meteobridge,2014-03-03 15:10:00,
2014-03-03 07:15:00,46.8,45.7,30.12,NE,50,0.0,0.9,96,0.00,,,0.00,18.0,meteobridge,2014-03-03 15:15:00,
2014-03-03 07:21:00,46.8,45.7,30.12,NE,50,0.0,0.0,96,0.00,,,0.00,21.0,meteobridge,2014-03-03 15:21:00,
2014-03-03 07:26:00,46.9,45.9,30.12,NE,50,0.9,0.9,96,0.00,,,0.00,23.0,meteobridge,2014-03-03 15:26:00,
2014-03-03 07:31:00,46.9,45.9,30.13,NE,50,0.0,0.9,96,0.00,,,0.00,26.0,meteobridge,2014-03-03 15:31:00,
2014-03-03 07:36:00,47.1,46.0,30.13,NE,50,0.0,0.9,96,0.00,,,0.00,30.0,meteobridge,2014-03-03 15:36:00,
2014-03-03 07:41:00,47.1,46.0,30.13,NE,50,0.0,0.0,96,0.00,,,0.00,33.0,meteobridge,2014-03-03 15:41:00,
2014-03-03 07:47:00,47.5,46.4,30.13,NE,50,0.0,2.0,96,0.00,,,0.00,39.0,meteobridge,2014-03-03 15:47:00,
2014-03-03 07:52:00,47.7,46.6,30.14,NE,50,0.9,0.9,96,0.00,,,0.00,40.0,meteobridge,2014-03-03 15:52:00,
2014-03-03 07:57:00,47.8,46.8,30.14,NE,50,0.0,0.9,96,0.00,,,0.00,39.0,meteobridge,2014-03-03 15:57:00,
2014-03-03 08:02:00,47.8,46.8,30.14,NE,50,0.0,0.9,96,0.00,,,0.00,49.0,meteobridge,2014-03-03 16:02:00,
2014-03-03 08:08:00,48.0,46.6,30.15,NE,50,0.0,0.9,95,0.00,,,0.00,44.0,meteobridge,2014-03-03 16:08:00,
2014-03-03 08:13:00,48.2,46.8,30.15,NE,50,0.9,2.0,95,0.00,,,0.00,49.0,meteobridge,2014-03-03 16:13:00,
2014-03-03 08:18:00,48.4,46.9,30.15,NE,50,0.9,0.9,95,0.00,,,0.00,65.0,meteobridge,2014-03-03 16:18:00,
2014-03-03 08:23:00,48.6,47.1,30.14,East,101,2.0,2.0,95,0.00,,,0.00,72.0,meteobridge,2014-03-03 16:23:00,
2014-03-03 08:28:00,48.7,47.3,30.14,SE,137,0.9,2.0,95,0.00,,,0.00,77.0,meteobridge,2014-03-03 16:28:00,
2014-03-03 08:33:00,48.9,47.3,30.14,SE,140,2.0,2.9,94,0.00,,,0.00,77.0,meteobridge,2014-03-03 16:33:00,
2014-03-03 08:38:00,49.3,47.7,30.14,SE,125,2.0,2.9,94,0.00,,,0.00,81.0,meteobridge,2014-03-03 16:38:00,
2014-03-03 08:43:00,49.5,47.5,30.14,SSE,154,2.9,2.9,93,0.00,,,0.00,91.0,meteobridge,2014-03-03 16:43:00,
2014-03-03 08:48:00,49.6,47.7,30.15,SSE,151,2.0,2.9,93,0.00,,,0.00,107.0,meteobridge,2014-03-03 16:48:00,
2014-03-03 08:53:00,49.8,47.7,30.14,SE,139,2.0,4.0,92,0.00,,,0.00,113.0,meteobridge,2014-03-03 16:53:00,
2014-03-03 08:59:00,50.2,48.0,30.14,South,174,2.9,4.0,92,0.00,,,0.00,121.0,meteobridge,2014-03-03 16:59:00,
2014-03-03 09:04:00,50.4,47.8,30.15,SE,129,0.9,4.0,91,0.00,,,0.00,128.0,meteobridge,2014-03-03 17:04:00,
2014-03-03 09:09:00,50.5,48.0,30.15,SSE,165,0.9,2.9,91,0.00,,,0.00,137.0,meteobridge,2014-03-03 17:09:00,
2014-03-03 09:14:00,50.7,47.8,30.15,SSE,162,0.0,2.0,90,0.00,,,0.00,137.0,meteobridge,2014-03-03 17:14:00,
2014-03-03 09:19:00,50.9,47.8,30.15,ESE,114,2.0,2.9,89,0.00,,,0.00,130.0,meteobridge,2014-03-03 17:19:00,
2014-03-03 09:24:00,51.1,47.7,30.14,ESE,114,0.9,2.0,88,0.00,,,0.00,121.0,meteobridge,2014-03-03 17:24:00,
2014-03-03 09:29:00,51.3,47.3,30.15,SSW,193,0.9,2.9,86,0.00,,,0.00,120.0,meteobridge,2014-03-03 17:29:00,
2014-03-03 09:34:00,51.4,47.5,30.14,SSW,193,0.9,0.9,86,0.00,,,0.00,118.0,meteobridge,2014-03-03 17:34:00,
2014-03-03 09:39:00,51.4,47.5,30.14,SSE,154,0.9,2.0,86,0.00,,,0.00,123.0,meteobridge,2014-03-03 17:39:00,
2014-03-03 09:44:00,51.8,47.5,30.14,SSE,154,0.9,2.0,85,0.00,,,0.00,137.0,meteobridge,2014-03-03 17:44:00,
2014-03-03 09:50:00,52.0,47.7,30.15,SSE,154,0.0,0.9,85,0.00,,,0.00,163.0,meteobridge,2014-03-03 17:50:00,
2014-03-03 09:55:00,52.2,47.1,30.14,SSE,154,0.0,0.9,83,0.00,,,0.00,181.0,meteobridge,2014-03-03 17:55:00,
2014-03-03 10:00:00,52.3,47.7,30.15,SSE,154,0.0,0.0,84,0.00,,,0.00,211.0,meteobridge,2014-03-03 18:00:00,
2014-03-03 10:05:00,52.5,47.8,30.14,North,354,0.9,2.0,84,0.00,,,0.00,246.0,meteobridge,2014-03-03 18:05:00,
2014-03-03 10:10:00,52.9,47.8,30.14,North,354,0.9,2.0,83,0.00,,,0.00,243.0,meteobridge,2014-03-03 18:10:00,
2014-03-03 10:16:00,53.2,47.8,30.14,NE,45,2.0,2.0,82,0.00,,,0.00,225.0,meteobridge,2014-03-03 18:16:00,
2014-03-03 10:21:00,53.4,47.7,30.14,ENE,74,2.0,2.9,81,0.00,,,0.00,236.0,meteobridge,2014-03-03 18:21:00,
2014-03-03 10:26:00,53.6,47.8,30.14,ENE,70,2.0,2.0,81,0.00,,,0.00,250.0,meteobridge,2014-03-03 18:26:00,
2014-03-03 10:31:00,54.0,48.0,30.14,SE,129,0.9,2.0,80,0.00,,,0.00,257.0,meteobridge,2014-03-03 18:31:00,
2014-03-03 10:36:00,54.1,47.8,30.13,ESE,120,0.0,0.9,79,0.00,,,0.00,260.0,meteobridge,2014-03-03 18:36:00,
2014-03-03 10:41:00,54.3,48.0,30.14,ESE,120,0.9,0.9,79,0.00,,,0.00,248.0,meteobridge,2014-03-03 18:41:00,
2014-03-03 10:46:00,54.9,48.6,30.14,SSE,156,2.0,4.0,79,0.00,,,0.00,225.0,meteobridge,2014-03-03 18:46:00,
2014-03-03 10:51:00,55.0,47.7,30.14,SSE,156,0.0,0.9,76,0.00,,,0.00,181.0,meteobridge,2014-03-03 18:51:00,
2014-03-03 10:56:00,55.2,48.6,30.13,SE,131,2.0,2.0,78,0.00,,,0.00,195.0,meteobridge,2014-03-03 18:56:00,
2014-03-03 11:01:00,55.6,48.2,30.13,SE,131,0.9,2.0,76,0.00,,,0.00,179.0,meteobridge,2014-03-03 19:01:00,
2014-03-03 11:07:00,55.8,48.4,30.12,East,93,2.0,2.0,76,0.00,,,0.00,178.0,meteobridge,2014-03-03 19:07:00,
2014-03-03 11:12:00,55.8,48.0,30.12,ESE,116,0.0,2.0,75,0.00,,,0.00,193.0,meteobridge,2014-03-03 19:12:00,
2014-03-03 11:17:00,55.9,48.2,30.12,ESE,115,0.9,0.9,75,0.00,,,0.00,197.0,meteobridge,2014-03-03 19:17:00,
2014-03-03 11:22:00,56.1,48.0,30.12,SSE,157,0.9,2.0,74,0.00,,,0.00,190.0,meteobridge,2014-03-03 19:22:00,
2014-03-03 11:27:00,56.3,48.6,30.12,SSE,157,0.0,0.9,75,0.00,,,0.00,181.0,meteobridge,2014-03-03 19:27:00,
2014-03-03 11:32:00,56.5,48.0,30.12,SSE,157,0.9,0.9,73,0.00,,,0.00,183.0,meteobridge,2014-03-03 19:32:00,
2014-03-03 11:37:00,56.7,48.0,30.12,WNW,287,0.0,2.9,73,0.00,,,0.00,179.0,meteobridge,2014-03-03 19:37:00,
2014-03-03 11:42:00,56.7,48.0,30.12,NW,314,2.0,2.0,73,0.00,,,0.00,167.0,meteobridge,2014-03-03 19:42:00,
2014-03-03 11:47:00,56.8,48.6,30.11,NW,314,2.0,2.0,74,0.00,,,0.00,165.0,meteobridge,2014-03-03 19:47:00,
2014-03-03 11:52:00,56.8,48.2,30.11,NW,314,0.9,0.9,73,0.00,,,0.00,163.0,meteobridge,2014-03-03 19:52:00,
2014-03-03 11:58:00,56.8,48.6,30.11,NW,314,0.9,0.9,74,0.00,,,0.00,158.0,meteobridge,2014-03-03 19:58:00,
2014-03-03 12:03:00,57.0,48.4,30.11,NW,314,0.9,2.0,73,0.00,,,0.00,171.0,meteobridge,2014-03-03 20:03:00,
2014-03-03 12:08:00,57.2,48.6,30.11,NW,314,2.0,2.0,73,0.00,,,0.00,167.0,meteobridge,2014-03-03 20:08:00,
2014-03-03 12:13:00,57.4,48.7,30.10,North,4,0.9,2.9,73,0.00,,,0.00,169.0,meteobridge,2014-03-03 20:13:00,
2014-03-03 12:18:00,57.4,48.7,30.11,North,4,0.9,0.9,73,0.00,,,0.00,167.0,meteobridge,2014-03-03 20:18:00,
2014-03-03 12:23:00,57.6,48.6,30.10,North,4,2.0,2.0,72,0.00,,,0.00,172.0,meteobridge,2014-03-03 20:23:00,
2014-03-03 12:28:00,57.7,48.4,30.10,North,4,0.9,2.0,71,0.00,,,0.00,176.0,meteobridge,2014-03-03 20:28:00,
2014-03-03 12:34:00,57.7,48.4,30.10,North,4,0.0,0.9,71,0.00,,,0.00,174.0,meteobridge,2014-03-03 20:34:00,
2014-03-03 12:39:00,57.9,48.9,30.10,WNW,293,0.9,2.9,72,0.00,,,0.00,160.0,meteobridge,2014-03-03 20:39:00,
2014-03-03 12:44:00,58.1,49.1,30.10,WNW,294,0.0,2.0,72,0.00,,,0.00,135.0,meteobridge,2014-03-03 20:44:00,
2014-03-03 12:49:00,58.3,49.3,30.10,WNW,295,0.0,2.0,72,0.00,,,0.00,130.0,meteobridge,2014-03-03 20:49:00,
2014-03-03 12:54:00,58.3,48.9,30.10,NNW,328,2.0,2.9,71,0.00,,,0.00,128.0,meteobridge,2014-03-03 20:54:00,
2014-03-03 12:59:00,58.3,48.9,30.10,NNW,332,2.0,2.0,71,0.00,,,0.00,125.0,meteobridge,2014-03-03 20:59:00,
2014-03-03 13:04:00,58.3,48.9,30.10,NNW,332,0.9,0.9,71,0.00,,,0.00,128.0,meteobridge,2014-03-03 21:04:00,
2014-03-03 13:09:00,58.5,49.5,30.10,NNW,332,0.9,2.0,72,0.00,,,0.00,149.0,meteobridge,2014-03-03 21:09:00,
2014-03-03 13:14:00,58.5,49.5,30.10,NNW,332,2.0,2.0,72,0.00,,,0.00,158.0,meteobridge,2014-03-03 21:14:00,
2014-03-03 13:19:00,58.6,49.6,30.10,NW,326,2.0,4.0,72,0.00,,,0.00,167.0,meteobridge,2014-03-03 21:19:00,
2014-03-03 13:24:00,58.6,49.3,30.10,NW,318,2.0,2.9,71,0.00,,,0.00,186.0,meteobridge,2014-03-03 21:24:00,
2014-03-03 13:29:00,58.8,49.5,30.09,NNW,345,2.9,4.0,71,0.00,,,0.00,200.0,meteobridge,2014-03-03 21:29:00,
2014-03-03 13:35:00,59.2,49.8,30.10,NW,307,2.9,4.9,71,0.00,,,0.00,200.0,meteobridge,2014-03-03 21:35:00,
2014-03-03 13:40:00,59.4,49.6,30.09,NW,325,2.0,4.9,70,0.00,,,0.00,190.0,meteobridge,2014-03-03 21:40:00,
2014-03-03 13:45:00,59.5,49.8,30.09,NW,326,4.0,4.9,70,0.00,,,0.00,186.0,meteobridge,2014-03-03 21:45:00,
2014-03-03 13:50:00,59.7,49.5,30.09,NNW,339,2.0,4.9,69,0.00,,,0.00,174.0,meteobridge,2014-03-03 21:50:00,
2014-03-03 13:55:00,60.1,49.5,30.09,WSW,247,2.0,4.9,68,0.00,,,0.00,199.0,meteobridge,2014-03-03 21:55:00,
2014-03-03 14:00:00,60.3,50.0,30.09,SW,226,0.9,2.9,69,0.00,,,0.00,190.0,meteobridge,2014-03-03 22:00:00,
2014-03-03 14:05:00,60.4,49.8,30.09,WSW,244,2.9,4.0,68,0.00,,,0.00,193.0,meteobridge,2014-03-03 22:05:00,
2014-03-03 14:11:00,60.6,50.0,30.09,West,260,2.9,6.9,68,0.00,,,0.00,178.0,meteobridge,2014-03-03 22:11:00,
2014-03-03 14:16:00,60.8,50.2,30.09,SW,226,2.9,4.0,68,0.00,,,0.00,176.0,meteobridge,2014-03-03 22:16:00,
2014-03-03 14:21:00,61.0,50.4,30.09,SW,220,2.9,4.0,68,0.00,,,0.00,181.0,meteobridge,2014-03-03 22:21:00,
2014-03-03 14:26:00,61.2,50.5,30.08,SSW,206,2.9,4.9,68,0.00,,,0.00,192.0,meteobridge,2014-03-03 22:26:00,
2014-03-03 14:31:00,61.3,50.7,30.08,SSW,199,2.9,4.0,68,0.00,,,0.00,197.0,meteobridge,2014-03-03 22:31:00,
2014-03-03 14:36:00,61.3,50.7,30.08,South,191,2.0,4.0,68,0.00,,,0.00,190.0,meteobridge,2014-03-03 22:36:00,
2014-03-03 14:41:00,61.5,50.0,30.08,SW,214,0.9,2.0,66,0.00,,,0.00,181.0,meteobridge,2014-03-03 22:41:00,
2014-03-03 14:46:00,61.5,50.0,30.07,SSE,158,0.9,4.0,66,0.00,,,0.00,169.0,meteobridge,2014-03-03 22:46:00,
2014-03-03 14:51:00,61.7,49.8,30.07,WSW,247,0.9,2.9,65,0.00,,,0.00,165.0,meteobridge,2014-03-03 22:51:00,
2014-03-03 14:57:00,61.9,49.1,30.07,SSE,147,2.9,4.0,63,0.00,,,0.00,160.0,meteobridge,2014-03-03 22:57:00,
2014-03-03 15:02:00,61.9,49.1,30.07,South,182,0.0,4.9,63,0.00,,,0.00,153.0,meteobridge,2014-03-03 23:02:00,
2014-03-03 15:07:00,61.9,49.1,30.07,SSE,166,4.9,6.0,63,0.00,,,0.00,141.0,meteobridge,2014-03-03 23:07:00,
2014-03-03 15:12:00,61.9,49.1,30.07,SSE,155,8.1,8.9,63,0.00,,,0.00,125.0,meteobridge,2014-03-03 23:12:00,
2014-03-03 15:17:00,61.9,48.2,30.07,SSE,148,2.9,6.0,61,0.00,,,0.00,111.0,meteobridge,2014-03-03 23:17:00,
2014-03-03 15:22:00,61.7,48.6,30.07,SSW,205,2.9,4.0,62,0.00,,,0.00,114.0,meteobridge,2014-03-03 23:22:00,
2014-03-03 15:27:00,61.5,48.7,30.07,South,172,2.9,8.1,63,0.00,,,0.00,100.0,meteobridge,2014-03-03 23:27:00,
2014-03-03 15:32:00,61.3,48.6,30.07,South,176,2.0,8.1,63,0.00,,,0.00,95.0,meteobridge,2014-03-03 23:32:00,
2014-03-03 15:37:00,61.2,48.9,30.07,SSE,160,4.0,4.0,64,0.00,,,0.00,88.0,meteobridge,2014-03-03 23:37:00,
2014-03-03 15:42:00,61.2,48.9,30.07,South,177,4.0,6.9,64,0.00,,,0.00,86.0,meteobridge,2014-03-03 23:42:00,
2014-03-03 15:47:00,61.0,49.1,30.06,South,181,4.0,6.0,65,0.00,,,0.00,84.0,meteobridge,2014-03-03 23:47:00,
2014-03-03 15:52:00,61.0,49.1,30.06,South,191,4.0,4.9,65,0.00,,,0.00,83.0,meteobridge,2014-03-03 23:52:00,
2014-03-03 15:57:00,60.8,49.5,30.07,SSW,193,2.9,4.9,66,0.00,,,0.00,83.0,meteobridge,2014-03-03 23:57:00,
2014-03-03 16:02:00,60.6,49.3,30.07,SE,136,4.0,6.9,66,0.00,,,0.00,76.0,meteobridge,2014-03-04 00:02:00,
2014-03-03 16:07:00,60.6,49.6,30.07,SSE,161,4.9,4.9,67,0.00,,,0.00,76.0,meteobridge,2014-03-04 00:07:00,
2014-03-03 16:13:00,60.6,49.3,30.06,South,185,0.0,2.0,66,0.00,,,0.00,77.0,meteobridge,2014-03-04 00:13:00,
2014-03-03 16:18:00,60.6,49.6,30.07,South,177,0.9,2.9,67,0.00,,,0.00,67.0,meteobridge,2014-03-04 00:18:00,
2014-03-03 16:23:00,60.4,49.5,30.07,South,177,0.9,0.9,67,0.00,,,0.00,56.0,meteobridge,2014-03-04 00:23:00,
2014-03-03 16:28:00,60.4,49.5,30.06,South,179,0.9,2.0,67,0.00,,,0.00,51.0,meteobridge,2014-03-04 00:28:00,
2014-03-03 16:33:00,60.4,49.8,30.07,South,187,2.0,4.0,68,0.00,,,0.00,47.0,meteobridge,2014-03-04 00:33:00,
2014-03-03 16:38:00,60.4,49.8,30.06,SW,218,2.9,4.9,68,0.00,,,0.00,39.0,meteobridge,2014-03-04 00:38:00,
2014-03-03 16:43:00,60.3,49.6,30.06,SSW,198,0.9,4.0,68,0.00,,,0.00,33.0,meteobridge,2014-03-04 00:43:00,
2014-03-03 16:48:00,60.3,50.0,30.06,South,188,0.9,2.9,69,0.00,,,0.00,30.0,meteobridge,2014-03-04 00:48:00,
2014-03-03 16:53:00,60.1,49.8,30.06,SE,139,4.0,4.9,69,0.00,,,0.00,25.0,meteobridge,2014-03-04 00:53:00,
2014-03-03 16:58:00,60.1,50.2,30.06,SSE,166,0.9,2.9,70,0.00,,,0.00,21.0,meteobridge,2014-03-04 00:58:00,
2014-03-03 17:03:00,59.9,50.5,30.07,SSW,192,2.0,2.9,71,0.00,,,0.00,19.0,meteobridge,2014-03-04 01:03:00,
2014-03-03 17:08:00,59.7,50.7,30.06,SSW,201,2.0,2.9,72,0.00,,,0.00,18.0,meteobridge,2014-03-04 01:08:00,
2014-03-03 17:13:00,59.5,50.9,30.06,South,177,0.9,2.0,73,0.00,,,0.00,18.0,meteobridge,2014-03-04 01:13:00,
2014-03-03 17:18:00,59.5,51.3,30.06,South,177,0.9,2.0,74,0.00,,,0.00,14.0,meteobridge,2014-03-04 01:18:00,
2014-03-03 17:23:00,59.4,51.4,30.06,South,191,0.9,2.0,75,0.00,,,0.00,12.0,meteobridge,2014-03-04 01:23:00,
2014-03-03 17:28:00,59.2,51.3,30.06,South,190,0.0,0.0,75,0.00,,,0.00,11.0,meteobridge,2014-03-04 01:28:00,
2014-03-03 17:33:00,59.2,52.0,30.07,South,190,0.9,0.9,77,0.00,,,0.00,9.0,meteobridge,2014-03-04 01:33:00,
2014-03-03 17:38:00,58.8,51.3,30.06,South,190,0.0,0.0,76,0.00,,,0.00,5.0,meteobridge,2014-03-04 01:38:00,
2014-03-03 17:44:00,58.6,51.1,30.06,South,178,2.0,2.9,76,0.00,,,0.00,5.0,meteobridge,2014-03-04 01:44:00,
2014-03-03 17:49:00,58.6,51.8,30.07,South,170,2.0,2.0,78,0.00,,,0.00,0.0,meteobridge,2014-03-04 01:49:00,
2014-03-03 17:54:00,58.5,51.3,30.06,SE,140,0.9,2.0,77,0.00,,,0.00,0.0,meteobridge,2014-03-04 01:54:00,
2014-03-03 17:59:00,58.3,51.4,30.07,SSW,202,0.9,2.9,78,0.00,,,0.00,0.0,meteobridge,2014-03-04 01:59:00,
2014-03-03 18:04:00,58.1,51.3,30.07,South,187,0.9,2.0,78,0.01,,,0.01,0.0,meteobridge,2014-03-04 02:04:00,
2014-03-03 18:09:00,57.9,51.4,30.07,South,175,0.9,2.0,79,0.01,,,0.01,0.0,meteobridge,2014-03-04 02:09:00,
2014-03-03 18:14:00,57.9,51.8,30.07,South,176,2.0,2.0,80,0.01,,,0.01,0.0,meteobridge,2014-03-04 02:14:00,
2014-03-03 18:19:00,57.7,52.0,30.07,SSW,209,0.9,2.0,81,0.01,,,0.01,0.0,meteobridge,2014-03-04 02:19:00,
2014-03-03 18:24:00,57.6,51.8,30.07,SW,235,2.9,2.9,81,0.01,,,0.01,0.0,meteobridge,2014-03-04 02:24:00,
2014-03-03 18:29:00,57.4,52.0,30.07,WSW,238,0.9,2.9,82,0.01,,,0.01,0.0,meteobridge,2014-03-04 02:29:00,
2014-03-03 18:34:00,57.2,52.2,30.07,WSW,239,2.0,2.9,83,0.01,,,0.01,0.0,meteobridge,2014-03-04 02:34:00,
2014-03-03 18:39:00,57.0,52.0,30.07,WSW,240,0.9,0.9,83,0.01,,,0.01,0.0,meteobridge,2014-03-04 02:39:00,
2014-03-03 18:44:00,56.8,51.8,30.07,SW,220,0.0,2.0,83,0.01,,,0.01,0.0,meteobridge,2014-03-04 02:44:00,
2014-03-03 18:49:00,56.8,52.0,30.08,SW,220,0.0,0.0,84,0.01,,,0.01,0.0,meteobridge,2014-03-04 02:49:00,
2014-03-03 18:55:00,56.7,51.8,30.08,SW,219,0.0,0.9,84,0.01,,,0.01,0.0,meteobridge,2014-03-04 02:55:00,
2014-03-03 19:00:00,56.7,52.2,30.08,SW,220,0.0,0.9,85,0.01,,,0.01,0.0,meteobridge,2014-03-04 03:00:00,
2014-03-03 19:05:00,56.5,52.3,30.08,South,185,0.9,2.0,86,0.01,,,0.02,0.0,meteobridge,2014-03-04 03:05:00,
2014-03-03 19:10:00,56.5,52.7,30.07,South,184,0.9,2.0,87,0.01,,,0.02,0.0,meteobridge,2014-03-04 03:10:00,
2014-03-03 19:15:00,56.1,52.3,30.07,South,185,0.0,0.9,87,0.01,,,0.02,0.0,meteobridge,2014-03-04 03:15:00,
2014-03-03 19:20:00,56.1,52.3,30.07,South,185,2.0,2.0,87,0.01,,,0.02,0.0,meteobridge,2014-03-04 03:20:00,
2014-03-03 19:25:00,55.9,52.5,30.07,South,185,0.9,2.0,88,0.01,,,0.02,0.0,meteobridge,2014-03-04 03:25:00,
2014-03-03 19:30:00,55.9,52.5,30.07,South,185,2.0,2.9,88,0.01,,,0.02,0.0,meteobridge,2014-03-04 03:30:00,
2014-03-03 19:35:00,55.8,52.3,30.07,SSW,199,0.9,2.9,88,0.01,,,0.02,0.0,meteobridge,2014-03-04 03:35:00,
2014-03-03 19:40:00,55.8,52.3,30.07,SSW,203,2.0,2.9,88,0.01,,,0.02,0.0,meteobridge,2014-03-04 03:40:00,
2014-03-03 19:45:00,55.6,52.2,30.07,SSW,193,2.0,2.9,88,0.01,,,0.02,0.0,meteobridge,2014-03-04 03:45:00,
2014-03-03 19:50:00,55.6,52.3,30.08,SSW,202,2.0,4.0,89,0.01,,,0.02,0.0,meteobridge,2014-03-04 03:50:00,
2014-03-03 19:55:00,55.4,52.2,30.07,SSW,205,2.9,2.9,89,0.01,,,0.02,0.0,meteobridge,2014-03-04 03:55:00,
2014-03-03 20:00:00,55.2,52.0,30.07,SSW,205,0.0,2.0,89,0.01,,,0.02,0.0,meteobridge,2014-03-04 04:00:00,
2014-03-03 20:06:00,55.2,52.0,30.07,SSW,205,0.9,0.9,89,0.00,,,0.02,0.0,meteobridge,2014-03-04 04:06:00,
2014-03-03 20:11:00,55.0,51.8,30.07,SSW,205,0.0,0.9,89,0.00,,,0.02,0.0,meteobridge,2014-03-04 04:11:00,
2014-03-03 20:16:00,55.0,51.8,30.07,SSW,205,0.9,2.0,89,0.00,,,0.02,0.0,meteobridge,2014-03-04 04:16:00,
2014-03-03 20:21:00,55.0,51.8,30.07,SSW,205,2.0,2.0,89,0.00,,,0.02,0.0,meteobridge,2014-03-04 04:21:00,
2014-03-03 20:26:00,55.0,52.2,30.08,SSW,195,2.0,2.9,90,0.00,,,0.02,0.0,meteobridge,2014-03-04 04:26:00,
2014-03-03 20:31:00,55.0,52.2,30.08,SSW,193,2.0,2.0,90,0.00,,,0.02,0.0,meteobridge,2014-03-04 04:31:00,
2014-03-03 20:36:00,55.0,52.2,30.08,SSW,193,2.0,2.0,90,0.00,,,0.02,0.0,meteobridge,2014-03-04 04:36:00,
2014-03-03 20:41:00,55.0,52.2,30.08,SSW,193,2.0,2.0,90,0.00,,,0.02,0.0,meteobridge,2014-03-04 04:41:00,
2014-03-03 20:46:00,54.9,52.0,30.08,South,181,2.0,2.9,90,0.00,,,0.02,0.0,meteobridge,2014-03-04 04:46:00,
2014-03-03 20:51:00,54.9,52.0,30.08,South,181,0.9,2.0,90,0.00,,,0.02,0.0,meteobridge,2014-03-04 04:51:00,
2014-03-03 20:56:00,54.9,52.3,30.09,SE,127,2.0,4.0,91,0.00,,,0.02,0.0,meteobridge,2014-03-04 04:56:00,
2014-03-03 21:01:00,54.9,52.0,30.09,SE,140,2.0,4.9,90,0.00,,,0.02,0.0,meteobridge,2014-03-04 05:01:00,
2014-03-03 21:02:00,54.9,52.0,30.09,SSE,156,2.0,4.0,90,0.00,,,0.03,0.0,meteobridge,2014-03-04 05:02:00,
2014-03-03 21:07:00,54.9,51.6,30.08,SE,131,2.0,2.9,89,0.01,,,0.03,0.0,meteobridge,2014-03-04 05:07:00,
2014-03-03 21:12:00,54.9,51.6,30.08,SSE,163,2.0,4.0,89,0.01,,,0.03,0.0,meteobridge,2014-03-04 05:12:00,
2014-03-03 21:17:00,54.9,51.6,30.08,SSE,164,2.0,2.0,89,0.01,,,0.03,0.0,meteobridge,2014-03-04 05:17:00,
2014-03-03 21:22:00,54.7,51.4,30.09,SSE,164,0.0,0.9,89,0.02,,,0.04,0.0,meteobridge,2014-03-04 05:22:00,
2014-03-03 21:27:00,54.7,51.4,30.09,SSE,164,0.9,0.9,89,0.02,,,0.04,0.0,meteobridge,2014-03-04 05:27:00,
2014-03-03 21:33:00,54.7,51.4,30.09,SE,139,2.0,2.0,89,0.02,,,0.04,0.0,meteobridge,2014-03-04 05:33:00,
2014-03-03 21:38:00,54.5,51.3,30.09,SE,130,0.9,4.0,89,0.02,,,0.04,0.0,meteobridge,2014-03-04 05:38:00,
2014-03-03 21:43:00,54.3,51.1,30.09,SE,130,2.9,4.0,89,0.03,,,0.05,0.0,meteobridge,2014-03-04 05:43:00,
2014-03-03 21:48:00,54.3,51.4,30.09,ESE,120,2.0,6.9,90,0.03,,,0.05,0.0,meteobridge,2014-03-04 05:48:00,
2014-03-03 21:53:00,54.3,51.4,30.09,SE,131,2.0,2.9,90,0.03,,,0.05,0.0,meteobridge,2014-03-04 05:53:00,
2014-03-03 21:58:00,54.1,51.3,30.09,ESE,113,2.0,2.9,90,0.03,,,0.05,0.0,meteobridge,2014-03-04 05:58:00,
2014-03-03 22:01:00,54.1,51.3,30.09,SE,135,2.0,4.0,90,0.02,,,0.05,0.0,meteobridge,2014-03-04 06:01:00,
2014-03-03 22:06:00,54.1,51.3,30.09,ESE,121,2.0,2.9,90,0.03,,,0.06,0.0,meteobridge,2014-03-04 06:06:00,
2014-03-03 22:11:00,54.0,51.1,30.09,SE,133,0.0,2.0,90,0.03,,,0.06,0.0,meteobridge,2014-03-04 06:11:00,
2014-03-03 22:16:00,54.0,51.1,30.09,SE,133,0.0,0.9,90,0.03,,,0.06,0.0,meteobridge,2014-03-04 06:16:00,
2014-03-03 22:21:00,53.8,50.9,30.09,SE,129,0.9,2.0,90,0.02,,,0.06,0.0,meteobridge,2014-03-04 06:21:00,
2014-03-03 22:26:00,53.8,50.9,30.09,ESE,104,0.0,4.0,90,0.02,,,0.06,0.0,meteobridge,2014-03-04 06:26:00,
2014-03-03 22:31:00,53.8,50.9,30.09,SE,138,2.0,2.9,90,0.02,,,0.06,0.0,meteobridge,2014-03-04 06:31:00,
2014-03-03 22:36:00,53.6,50.7,30.09,SSE,156,2.0,2.9,90,0.02,,,0.06,0.0,meteobridge,2014-03-04 06:36:00,
2014-03-03 22:41:00,53.4,50.5,30.09,SE,142,0.0,2.0,90,0.01,,,0.06,0.0,meteobridge,2014-03-04 06:41:00,
2014-03-03 22:46:00,53.4,50.5,30.09,SE,132,0.9,2.0,90,0.02,,,0.07,0.0,meteobridge,2014-03-04 06:46:00,
2014-03-03 22:52:00,53.4,50.9,30.09,SE,136,0.0,0.9,91,0.02,,,0.07,0.0,meteobridge,2014-03-04 06:52:00,
2014-03-03 22:57:00,53.2,50.7,30.08,SE,135,0.9,0.9,91,0.02,,,0.07,0.0,meteobridge,2014-03-04 06:57:00,
2014-03-03 23:02:00,53.2,50.7,30.06,ESE,122,8.1,8.1,91,0.02,,,0.07,0.0,meteobridge,2014-03-04 07:02:00,
2014-03-03 23:07:00,53.1,50.5,30.06,SSE,156,0.9,4.0,91,0.01,,,0.07,0.0,meteobridge,2014-03-04 07:07:00,
2014-03-03 23:12:00,53.1,50.7,30.07,SSE,164,0.0,2.0,92,0.01,,,0.07,0.0,meteobridge,2014-03-04 07:12:00,
2014-03-03 23:17:00,53.1,50.7,30.07,SSE,164,0.9,2.0,92,0.01,,,0.07,0.0,meteobridge,2014-03-04 07:17:00,
2014-03-03 23:22:00,53.1,50.7,30.06,SSE,159,0.0,0.0,92,0.01,,,0.07,0.0,meteobridge,2014-03-04 07:22:00,
2014-03-03 23:27:00,53.1,51.1,30.05,SE,138,4.0,4.9,93,0.01,,,0.07,0.0,meteobridge,2014-03-04 07:27:00,
2014-03-03 23:32:00,53.1,51.1,30.04,SE,126,2.9,4.0,93,0.01,,,0.07,0.0,meteobridge,2014-03-04 07:32:00,
2014-03-03 23:38:00,53.1,51.1,30.05,SSE,164,0.9,4.0,93,0.01,,,0.07,0.0,meteobridge,2014-03-04 07:38:00,
2014-03-03 23:43:00,53.2,51.3,30.06,WSW,246,2.0,2.9,93,0.00,,,0.07,0.0,meteobridge,2014-03-04 07:43:00,
2014-03-03 23:48:00,53.2,51.3,30.06,SW,219,0.9,2.0,93,0.00,,,0.07,0.0,meteobridge,2014-03-04 07:48:00,
2014-03-03 23:53:00,53.2,51.3,30.06,SW,214,0.0,2.0,93,0.00,,,0.07,0.0,meteobridge,2014-03-04 07:53:00,
2014-03-03 23:58:00,53.2,51.3,30.07,WSW,257,0.9,2.0,93,0.00,,,0.07,0.0,meteobridge,2014-03-04 07:58:00,